Time;durP1;ratioP1;P1;durP2;ratioP2;P2;SDS_P1;SDS_P2;PMS_P1;PMS_P2;Temp;Humidity;BMP_temperature;BMP_pressure;BME280_temperature;BME280_humidity;BME280_pressure;Samples;Min_cycle;Max_cycle;Signal;HPM_P1;HPM_P2
2022/06/24 00:01:42;;;;;;;5.93;2.00;;;;;;;18.24;46.23;99288.34;5095725;28;20138;-76
2022/06/24 00:04:09;;;;;;;3.40;1.60;;;;;;;18.23;46.18;99291.56;5095984;28;20044;-69
2022/06/24 00:06:46;;;;;;;6.15;1.88;;;;;;;18.23;45.95;99303.59;5095799;28;20143;-71
2022/06/24 00:09:15;;;;;;;8.07;2.13;;;;;;;18.18;45.87;99293.50;5095693;28;20138;-71
2022/06/24 00:11:43;;;;;;;9.40;2.10;;;;;;;18.15;46.15;99304.75;5095652;28;20142;-71
2022/06/24 00:14:15;;;;;;;4.15;2.00;;;;;;;18.13;45.92;99298.69;5095805;28;20044;-71
2022/06/24 00:16:55;;;;;;;4.38;1.63;;;;;;;18.11;46.32;99307.53;5095695;28;20055;-71
2022/06/24 00:19:24;;;;;;;4.55;1.90;;;;;;;18.04;46.29;99301.84;5095679;28;20470;-73
2022/06/24 00:22:09;;;;;;;8.10;1.75;;;;;;;18.03;46.15;99307.88;5095425;28;20606;-72
2022/06/24 00:24:38;;;;;;;3.60;1.90;;;;;;;17.97;46.46;99313.03;5095877;28;20044;-72
2022/06/24 00:27:24;;;;;;;3.58;2.05;;;;;;;17.94;46.05;99301.72;5095505;28;20051;-72
2022/06/24 00:29:54;;;;;;;4.53;2.13;;;;;;;17.95;46.36;99311.81;5095199;28;20043;-71
2022/06/24 00:32:31;;;;;;;;;;;;;;;17.83;46.50;99317.72;5095747;28;20600;-72
2022/06/24 00:35:20;;;;;;;6.70;1.80;;;;;;;17.86;46.50;99308.50;5095316;28;19975;-71
2022/06/24 00:37:47;;;;;;;3.88;1.80;;;;;;;17.84;46.52;99313.69;5094937;28;20095;-73
2022/06/24 00:40:14;;;;;;;3.22;1.55;;;;;;;17.82;46.54;99316.88;5095345;28;20105;-72
2022/06/24 00:42:43;;;;;;;2.50;1.52;;;;;;;17.81;46.34;99326.53;5095712;28;20044;-72
2022/06/24 00:45:38;;;;;;;3.80;2.00;;;;;;;17.79;46.38;99325.28;5095480;28;20078;-74
2022/06/24 00:48:13;;;;;;;3.13;1.70;;;;;;;17.72;46.33;99328.03;5095111;28;20086;-73
2022/06/24 00:50:46;;;;;;;3.42;1.80;;;;;;;17.69;46.90;99326.00;5095075;28;20051;-72
2022/06/24 00:53:14;;;;;;;4.53;1.70;;;;;;;17.66;47.03;99330.38;5094989;28;20513;-74
2022/06/24 00:55:41;;;;;;;5.60;2.22;;;;;;;17.68;46.90;99333.59;5095481;28;20047;-75
2022/06/24 00:58:13;;;;;;;3.28;1.55;;;;;;;17.70;46.73;99336.84;5094686;28;20040;-73
2022/06/24 01:00:44;;;;;;;5.38;1.90;;;;;;;17.67;47.11;99350.88;5076584;28;20056;-72
2022/06/24 01:03:14;;;;;;;3.53;2.22;;;;;;;17.64;46.71;99337.56;5074559;28;20055;-72
2022/06/24 01:05:42;;;;;;;7.30;2.08;;;;;;;17.62;47.14;99328.72;5074663;28;20074;-75
2022/06/24 01:08:12;;;;;;;3.28;1.90;;;;;;;17.60;46.92;99333.91;5074254;28;20098;-73
2022/06/24 01:10:40;;;;;;;9.93;2.38;;;;;;;17.58;47.25;99330.66;5074466;28;20056;-73
2022/06/24 01:13:09;;;;;;;4.55;2.00;;;;;;;17.57;47.36;99338.31;5074351;28;20076;-73
2022/06/24 01:15:37;;;;;;;4.07;2.13;;;;;;;17.58;47.60;99336.28;5074668;28;20056;-76
2022/06/24 01:18:04;;;;;;;4.97;1.88;;;;;;;17.58;47.50;99339.09;5074242;28;20052;-76
2022/06/24 01:20:31;;;;;;;7.75;2.35;;;;;;;17.56;47.95;99339.50;5066437;28;20056;-73
2022/06/24 01:22:58;;;;;;;7.65;2.10;;;;;;;17.56;47.60;99347.94;5094145;28;20469;-73
2022/06/24 01:25:25;;;;;;;4.72;1.98;;;;;;;17.56;47.85;99338.72;5094097;28;20157;-75
2022/06/24 01:27:52;;;;;;;8.27;2.40;;;;;;;17.58;47.80;99341.91;5094033;28;20071;-75
2022/06/24 01:30:19;;;;;;;8.73;2.53;;;;;;;17.59;48.11;99338.72;5094296;28;20451;-73
2022/06/24 01:32:46;;;;;;;3.63;2.00;;;;;;;17.60;48.13;99337.56;5093894;28;20461;-73
2022/06/24 01:35:13;;;;;;;4.50;2.25;;;;;;;17.59;47.89;99335.91;5094213;28;20167;-75
2022/06/24 01:37:40;;;;;;;6.93;2.50;;;;;;;17.61;48.22;99344.78;5075978;28;20085;-75
2022/06/24 01:40:08;;;;;;;7.10;2.28;;;;;;;17.61;48.15;99349.59;5094548;28;20137;-73
2022/06/24 01:42:37;;;;;;;7.90;2.40;;;;;;;17.58;48.12;99339.09;5093915;28;20101;-74
2022/06/24 01:45:05;;;;;;;5.47;2.03;;;;;;;17.58;48.28;99344.75;5093985;28;20048;-72
2022/06/24 01:47:32;;;;;;;5.20;2.20;;;;;;;17.60;48.64;99348.81;5093845;28;20044;-73
2022/06/24 01:50:00;;;;;;;5.78;2.75;;;;;;;17.60;48.70;99346.00;5077285;28;20110;-72
2022/06/24 01:52:27;;;;;;;6.30;2.53;;;;;;;17.60;48.44;99350.78;5073418;28;20388;-74
2022/06/24 01:54:54;;;;;;;8.52;2.97;;;;;;;17.63;48.85;99352.84;5073622;28;20052;-73
2022/06/24 01:57:21;;;;;;;12.10;2.67;;;;;;;17.59;48.92;99349.97;5073284;28;20044;-73
2022/06/24 01:59:50;;;;;;;8.27;3.35;;;;;;;17.61;48.79;99349.59;5073290;28;20076;-75
2022/06/24 02:02:17;;;;;;;11.13;2.70;;;;;;;17.64;49.17;99360.06;5073339;28;20129;-73
2022/06/24 02:04:47;;;;;;;6.47;2.40;;;;;;;17.64;49.31;99360.06;5073284;28;20052;-73
2022/06/24 02:07:14;;;;;;;4.53;2.30;;;;;;;17.62;49.38;99356.84;5073303;28;20048;-73
2022/06/24 02:15:42;;;;;;;6.28;2.08;;;;;;;17.63;49.80;99358.47;5058853;28;20174;-70
2022/06/24 02:18:09;;;;;;;12.40;2.78;;;;;;;17.66;49.79;99358.53;5073011;28;20488;-73
2022/06/24 02:20:36;;;;;;;11.27;3.03;;;;;;;17.68;50.02;99355.31;5084215;28;20048;-71
2022/06/24 02:23:10;;;;;;;7.47;2.72;;;;;;;17.69;50.37;99356.94;5092876;28;20058;-71
2022/06/24 02:25:37;;;;;;;5.13;2.45;;;;;;;17.63;50.52;99352.84;5093269;28;20058;-73
2022/06/24 02:28:04;;;;;;;5.65;2.60;;;;;;;17.66;50.52;99354.88;5093180;28;20052;-73
2022/06/24 02:30:31;;;;;;;7.80;2.90;;;;;;;17.70;50.73;99355.72;5092957;28;20130;-70
2022/06/24 02:32:58;;;;;;;6.82;2.47;;;;;;;17.76;50.47;99359.81;5092913;28;20106;-71
2022/06/24 02:35:25;;;;;;;10.73;3.28;;;;;;;17.77;50.55;99358.63;5092910;28;20135;-71
2022/06/24 02:37:52;;;;;;;6.90;2.80;;;;;;;17.81;50.42;99360.31;5092931;28;20174;-72
2022/06/24 02:43:12;;;;;;;8.23;2.80;;;;;;;17.90;50.30;99360.81;5092984;28;20050;-71
2022/06/24 02:45:40;;;;;;;11.98;3.70;;;;;;;17.92;50.35;99366.03;5093130;28;20085;-69
2022/06/24 02:48:07;;;;;;;7.07;3.03;;;;;;;17.92;50.52;99371.69;5092958;28;20052;-68
2022/06/24 02:50:45;;;;;;;10.07;3.20;;;;;;;17.96;50.17;99373.34;5093200;28;20439;-67
2022/06/24 02:53:16;;;;;;;16.50;5.28;;;;;;;17.99;50.28;99371.75;5092924;28;20538;-67
2022/06/24 02:55:45;;;;;;;9.80;3.05;;;;;;;18.02;50.10;99370.97;5075786;28;20399;-67
2022/06/24 02:58:13;;;;;;;9.48;2.95;;;;;;;18.04;49.97;99377.03;5092704;28;20044;-70
2022/06/24 03:00:41;;;;;;;10.02;2.97;;;;;;;18.10;49.54;99378.31;5092510;28;20058;-68
2022/06/24 03:03:10;;;;;;;9.07;2.72;;;;;;;18.14;49.46;99379.13;5092541;28;20542;-67
2022/06/24 03:05:37;;;;;;;7.43;2.80;;;;;;;18.16;49.39;99376.75;5092855;28;20522;-76
2022/06/24 03:08:05;;;;;;;8.25;3.10;;;;;;;18.20;49.04;99374.78;5092501;28;20040;-74
2022/06/24 03:10:32;;;;;;;6.47;2.97;;;;;;;18.28;49.25;99382.09;5092681;28;20054;-74
2022/06/24 03:12:59;;;;;;;12.63;3.50;;;;;;;18.32;49.10;99380.13;5092684;28;20048;-74
2022/06/24 03:15:26;;;;;;;15.57;3.10;;;;;;;18.36;48.60;99383.81;5093031;28;20056;-73
2022/06/24 03:17:55;;;;;;;10.13;3.30;;;;;;;18.43;47.96;99386.69;5074778;28;20050;-73
2022/06/24 03:20:26;;;;;;;13.53;3.67;;;;;;;18.50;48.05;99383.94;5092280;28;20052;-75
2022/06/24 03:22:53;;;;;;;16.55;3.22;;;;;;;18.56;47.79;99382.38;5092320;28;20048;-74
2022/06/24 03:25:20;;;;;;;6.38;2.83;;;;;;;18.59;47.68;99381.59;5096758;28;20138;-76
2022/06/24 03:27:47;;;;;;;15.20;3.20;;;;;;;18.65;47.26;99388.50;5096559;28;20051;-74
2022/06/24 03:30:15;;;;;;;6.75;2.70;;;;;;;18.75;46.95;99399.06;5096684;28;20054;-72
2022/06/24 03:32:42;;;;;;;6.97;2.95;;;;;;;18.84;46.67;99404.34;5096485;28;20044;-75
2022/06/24 03:35:11;;;;;;;6.93;2.80;;;;;;;18.91;46.70;99405.22;5096851;28;20499;-74
2022/06/24 03:37:38;;;;;;;12.32;3.58;;;;;;;18.95;46.35;99397.59;5096394;28;20074;-74
2022/06/24 03:40:05;;;;;;;8.80;2.88;;;;;;;19.02;45.85;99402.47;5096144;28;20426;-74
2022/06/24 03:42:32;;;;;;;6.93;2.88;;;;;;;19.10;45.90;99406.97;5096290;28;20079;-74
2022/06/24 03:45:00;;;;;;;4.85;2.58;;;;;;;19.25;45.64;99400.22;5097134;28;20438;-73
2022/06/24 03:47:29;;;;;;;8.65;3.00;;;;;;;19.48;45.11;99410.06;5096308;28;20081;-73
2022/06/24 03:49:56;;;;;;;11.82;2.78;;;;;;;19.73;44.46;99411.00;5095990;28;20048;-75
2022/06/24 03:52:23;;;;;;;9.98;3.00;;;;;;;19.92;43.96;99413.47;5096259;28;20539;-73
2022/06/24 03:54:50;;;;;;;8.20;3.08;;;;;;;20.07;43.45;99410.72;5096408;28;20055;-74
2022/06/24 03:57:17;;;;;;;10.18;3.00;;;;;;;20.18;42.86;99412.38;5095861;28;20088;-72
2022/06/24 03:59:44;;;;;;;14.02;3.50;;;;;;;20.27;42.66;99411.97;5096315;28;20426;-72
2022/06/24 04:02:11;;;;;;;6.22;2.90;;;;;;;20.34;42.44;99401.50;5096033;28;20047;-70
2022/06/24 04:04:38;;;;;;;9.98;3.08;;;;;;;20.44;42.36;99408.38;5096293;28;20454;-68
2022/06/24 04:07:05;;;;;;;14.90;3.00;;;;;;;20.54;42.05;99405.56;5078032;28;20414;-70
2022/06/24 04:09:32;;;;;;;6.15;2.80;;;;;;;20.66;42.06;99408.00;5095635;28;20043;-68
2022/06/24 04:11:59;;;;;;;6.88;2.60;;;;;;;20.79;41.80;99411.25;5095717;28;20054;-68
2022/06/24 04:17:12;;;;;;;13.77;3.13;;;;;;;21.06;41.72;99406.81;5095551;28;20050;-69
2022/06/24 04:19:39;;;;;;;7.75;2.95;;;;;;;21.20;41.20;99406.81;5095631;28;20074;-70
2022/06/24 04:22:05;;;;;;;8.55;2.80;;;;;;;21.37;41.06;99400.28;5095913;28;20048;-68
2022/06/24 04:24:32;;;;;;;9.90;2.78;;;;;;;21.51;40.92;99401.06;5095576;28;20048;-68
2022/06/24 04:26:59;;;;;;;10.73;3.15;;;;;;;21.66;40.37;99410.31;5095698;28;20048;-68
2022/06/24 04:29:26;;;;;;;10.98;2.85;;;;;;;21.80;40.21;99404.66;5095316;28;20123;-70
2022/06/24 04:31:53;;;;;;;8.07;2.72;;;;;;;21.98;39.58;99411.03;5095355;28;20521;-70
2022/06/24 04:34:24;;;;;;;5.75;3.03;;;;;;;22.06;39.39;99415.47;5095078;28;20422;-71
2022/06/24 04:36:50;;;;;;;8.93;2.50;;;;;;;22.23;38.90;99419.41;5095295;28;20105;-70
2022/06/24 04:39:17;;;;;;;6.68;2.85;;;;;;;22.41;38.89;99412.41;5095110;28;20044;-71
2022/06/24 04:41:44;;;;;;;5.57;2.42;;;;;;;22.58;38.56;99408.69;5095198;28;20502;-71
2022/06/24 04:44:11;;;;;;;9.63;2.83;;;;;;;22.73;38.32;99407.34;5095460;28;20055;-71
2022/06/24 04:46:38;;;;;;;7.43;2.97;;;;;;;22.86;38.23;99399.94;5095101;28;20054;-72
2022/06/24 04:49:05;;;;;;;14.00;2.10;;;;;;;22.91;37.37;99410.03;5095192;28;20470;-71
2022/06/24 04:51:33;;;;;;;14.95;2.22;;;;;;;22.89;37.31;99403.97;5077369;28;20055;-71
2022/06/24 04:54:00;;;;;;;6.15;2.40;;;;;;;22.87;37.00;99404.41;5077239;28;20499;-73
2022/06/24 04:56:27;;;;;;;10.23;1.80;;;;;;;23.02;36.83;99400.22;5094910;28;20056;-71
2022/06/24 04:58:59;;;;;;;9.82;3.05;;;;;;;23.36;36.10;99401.09;5094802;28;20040;-72
2022/06/24 05:01:28;;;;;;;3.35;1.77;;;;;;;23.70;35.34;99398.31;5094712;28;20055;-71
2022/06/24 05:03:55;;;;;;;7.23;2.27;;;;;;;24.00;34.61;99403.22;5094517;28;20170;-71
2022/06/24 05:06:22;;;;;;;10.23;3.47;;;;;;;24.31;34.11;99399.16;5094868;28;20109;-72
2022/06/24 05:08:49;;;;;;;4.82;1.60;;;;;;;24.35;33.51;99399.91;5094443;28;20089;-68
2022/06/24 05:11:16;;;;;;;4.82;1.95;;;;;;;24.28;33.28;99402.84;5094236;28;20262;-69
2022/06/24 05:13:43;;;;;;;8.82;3.05;;;;;;;24.24;33.72;99402.09;5094517;28;20139;-71
2022/06/24 05:16:10;;;;;;;3.88;1.98;;;;;;;24.25;33.22;99398.03;5094658;28;20051;-70
2022/06/24 05:18:57;;;;;;;5.03;1.83;;;;;;;24.36;32.07;99410.03;5094331;28;20048;-69
2022/06/24 05:21:24;;;;;;;4.70;1.67;;;;;;;24.45;31.23;99404.66;5094224;28;20055;-69
2022/06/24 05:23:51;;;;;;;9.02;1.35;;;;;;;24.62;31.01;99412.91;5094412;28;20052;-71
2022/06/24 05:26:19;;;;;;;4.63;1.60;;;;;;;24.86;31.17;99414.56;5094223;28;20048;-69
2022/06/24 05:28:47;;;;;;;4.03;1.87;;;;;;;24.87;31.31;99415.41;5094156;28;20499;-72
2022/06/24 05:31:13;;;;;;;4.82;1.60;;;;;;;24.93;31.39;99410.81;5094393;28;20052;-71
2022/06/24 05:33:41;;;;;;;4.65;2.10;;;;;;;25.00;31.62;99410.69;5094226;28;20052;-71
2022/06/24 05:36:08;;;;;;;6.22;1.70;;;;;;;25.18;31.13;99402.66;5094092;28;20093;-71
2022/06/24 05:38:35;;;;;;;5.78;1.77;;;;;;;25.38;30.85;99412.06;5093813;28;20059;-68
2022/06/24 05:41:03;;;;;;;6.47;1.83;;;;;;;25.54;30.26;99409.31;5094008;28;20055;-70
2022/06/24 05:43:31;;;;;;;4.15;1.67;;;;;;;25.72;29.84;99409.78;5094146;28;20076;-76
2022/06/24 05:45:57;;;;;;;10.30;2.70;;;;;;;25.76;29.71;99413.38;5092793;28;20047;-73
2022/06/24 05:48:24;;;;;;;8.15;2.08;;;;;;;25.98;29.48;99411.72;5093862;28;20100;-73
2022/06/24 05:50:53;;;;;;;5.75;1.90;;;;;;;26.17;29.03;99405.19;5093904;28;20055;-74
2022/06/24 05:56:06;;;;;;;8.25;2.33;;;;;;;26.45;27.66;99410.25;5093729;28;20407;-73
2022/06/24 05:58:33;;;;;;;7.75;1.80;;;;;;;26.37;27.68;99405.16;5093639;28;20131;-73
2022/06/24 06:01:10;;;;;;;5.22;1.83;;;;;;;26.36;27.81;99398.66;5093158;28;20052;-73
2022/06/24 06:03:39;;;;;;;5.05;2.53;;;;;;;26.39;27.73;99400.63;5093691;28;20130;-73
2022/06/24 06:06:07;;;;;;;4.10;1.45;;;;;;;26.52;28.03;99390.13;5093556;28;20097;-73
2022/06/24 06:08:35;;;;;;;8.73;1.63;;;;;;;26.95;27.40;99389.09;5093633;28;20544;-71
2022/06/24 06:11:13;;;;;;;6.50;1.92;;;;;;;27.63;26.20;99389.75;5093012;28;20076;-74
2022/06/24 06:13:41;;;;;;;8.50;1.75;;;;;;;28.71;25.21;99399.97;5093319;28;20059;-74
2022/06/24 06:16:09;;;;;;;3.33;1.70;;;;;;;31.18;22.01;99390.31;5093320;28;20051;-72
2022/06/24 06:18:37;;;;;;;11.68;2.10;;;;;;;33.96;19.10;99394.19;5093284;28;20047;-74
2022/06/24 06:21:09;;;;;;;8.13;2.53;;;;;;;33.52;18.98;99388.25;5093229;28;20048;-74
2022/06/24 06:23:37;;;;;;;8.68;2.00;;;;;;;32.54;20.18;99385.38;5093181;28;20056;-73
2022/06/24 06:26:08;;;;;;;;;;;;;;;31.73;20.82;99382.56;5093553;28;20131;-73
2022/06/24 06:28:36;;;;;;;11.98;2.20;;;;;;;30.51;22.31;99385.72;5092889;28;19931;-72
2022/06/24 06:31:03;;;;;;;3.25;1.88;;;;;;;29.81;22.67;99384.28;5093136;28;20094;-74
2022/06/24 06:33:33;;;;;;;3.55;1.90;;;;;;;29.07;23.46;99386.13;5093425;28;20047;-73
2022/06/24 06:36:05;;;;;;;4.80;2.00;;;;;;;28.29;24.67;99387.81;5093100;28;20410;-74
2022/06/24 06:38:33;;;;;;;5.00;2.03;;;;;;;27.66;25.30;99383.13;5092996;28;20054;-73
2022/06/24 06:41:00;;;;;;;13.00;1.88;;;;;;;27.29;25.50;99393.13;5093229;28;20071;-73
2022/06/24 06:43:28;;;;;;;3.58;1.50;;;;;;;27.13;25.84;99383.75;5093085;28;20101;-74
2022/06/24 06:45:56;;;;;;;5.40;1.75;;;;;;;27.44;25.33;99390.72;5092582;28;20052;-74
2022/06/24 06:48:24;;;;;;;15.10;3.28;;;;;;;28.50;24.40;99383.50;5092951;28;20079;-73
2022/06/24 06:50:56;;;;;;;4.88;1.80;;;;;;;30.11;22.55;99386.41;5093130;28;20048;-74
2022/06/24 06:53:25;;;;;;;81.57;38.15;;;;;;;31.89;20.89;99384.34;5093064;28;20518;-72
2022/06/24 06:55:53;;;;;;;10.48;2.20;;;;;;;36.47;16.52;99374.56;5093131;28;20047;-75
2022/06/24 06:58:23;;;;;;;7.65;1.80;;;;;;;40.17;13.67;99384.13;5089338;28;20131;-71
2022/06/24 07:00:51;;;;;;;2.85;1.38;;;;;;;42.33;12.00;99377.72;5080661;28;20054;-73
2022/06/24 07:03:21;;;;;;;3.58;1.60;;;;;;;44.07;10.58;99381.47;5093285;28;20155;-73
2022/06/24 07:05:48;;;;;;;2.33;1.50;;;;;;;45.86;9.46;99381.69;5092666;28;20411;-71
2022/06/24 07:08:15;;;;;;;3.47;1.42;;;;;;;47.28;8.47;99383.50;5074358;28;20101;-74
2022/06/24 07:10:44;;;;;;;5.25;1.50;;;;;;;48.04;7.67;99387.13;5092984;28;20101;-74
2022/06/24 07:13:11;;;;;;;2.33;1.40;;;;;;;48.97;7.30;99391.38;5092795;28;20052;-71
2022/06/24 07:15:39;;;;;;;2.72;1.50;;;;;;;50.06;6.98;99377.34;5092570;28;20048;-72
2022/06/24 07:18:06;;;;;;;2.15;1.30;;;;;;;50.54;6.35;99384.41;5092343;28;20507;-72
2022/06/24 07:20:33;;;;;;;4.95;1.60;;;;;;;50.83;6.51;99379.44;5092141;28;20052;-72
2022/06/24 07:23:00;;;;;;;6.03;1.67;;;;;;;52.32;5.27;99390.00;5073970;28;20048;-71
2022/06/24 07:25:28;;;;;;;6.65;1.40;;;;;;;52.88;4.92;99383.81;5092583;28;20097;-71
2022/06/24 07:27:54;;;;;;;2.72;1.50;;;;;;;53.10;4.95;99392.19;5092482;28;20134;-72
2022/06/24 07:30:21;;;;;;;2.88;1.40;;;;;;;52.93;5.19;99382.66;5092446;28;20051;-72
2022/06/24 07:32:49;;;;;;;2.75;1.70;;;;;;;53.64;4.71;99383.47;5092296;28;20080;-72
2022/06/24 07:35:16;;;;;;;6.80;1.67;;;;;;;54.02;4.93;99377.22;5092470;28;20441;-72
2022/06/24 07:38:03;;;;;;;3.05;1.70;;;;;;;53.92;4.15;99388.47;5092292;28;20507;-72
2022/06/24 07:40:30;;;;;;;4.60;1.65;;;;;;;54.90;4.26;99382.50;5092435;28;20521;-72
2022/06/24 07:42:58;;;;;;;4.82;1.77;;;;;;;55.78;3.98;99369.53;5092077;28;20090;-72
2022/06/24 07:45:27;;;;;;;5.85;2.47;;;;;;;56.61;3.44;99367.13;5092250;28;20048;-72
2022/06/24 07:47:54;;;;;;;3.35;2.05;;;;;;;57.03;3.04;99366.59;5091800;28;20048;-74
2022/06/24 07:50:21;;;;;;;3.90;1.90;;;;;;;57.05;2.81;99379.44;5092300;28;20414;-75
2022/06/24 07:52:49;;;;;;;5.05;2.05;;;;;;;56.15;3.63;99370.31;5092219;28;20047;-72
2022/06/24 07:58:02;;;;;;;2.85;2.00;;;;;;;57.60;2.58;99365.31;5092179;28;20040;-71
2022/06/24 08:00:29;;;;;;;12.55;2.20;;;;;;;57.87;3.11;99365.31;5091513;28;20140;-71
2022/06/24 08:02:55;;;;;;;5.13;2.38;;;;;;;57.53;2.65;99366.41;5092038;28;20406;-72
2022/06/24 08:05:23;;;;;;;10.32;2.15;;;;;;;56.69;3.06;99347.44;5092142;28;20052;-72
2022/06/24 08:07:50;;;;;;;3.03;2.20;;;;;;;56.68;3.17;99348.91;5091799;28;20052;-71
2022/06/24 08:10:18;;;;;;;2.85;2.05;;;;;;;56.73;3.03;99355.88;5094272;28;20044;-72
2022/06/24 08:12:45;;;;;;;4.57;2.10;;;;;;;56.97;3.31;99357.28;5095455;28;20047;-72
2022/06/24 08:15:14;;;;;;;2.63;1.90;;;;;;;56.63;3.18;99349.31;5095614;28;20058;-72
2022/06/24 08:17:41;;;;;;;10.20;1.90;;;;;;;57.05;3.29;99352.53;5095274;28;20101;-72
2022/06/24 08:20:08;;;;;;;5.32;2.13;;;;;;;58.30;2.35;99360.06;5077069;28;20062;-72
2022/06/24 08:22:35;;;;;;;5.78;2.20;;;;;;;57.82;2.70;99351.53;5095192;28;20048;-73
2022/06/24 08:25:03;;;;;;;4.28;2.83;;;;;;;58.35;2.12;99349.84;5095256;28;20497;-73
2022/06/24 08:27:47;;;;;;;4.45;2.03;;;;;;;58.61;1.95;99354.19;5095186;28;20055;-72
2022/06/24 08:30:14;;;;;;;7.03;2.50;;;;;;;58.79;1.92;99350.53;5095284;28;20040;-73
2022/06/24 08:32:41;;;;;;;3.20;2.22;;;;;;;58.70;1.83;99345.59;5095050;28;20040;-72
2022/06/24 08:35:08;;;;;;;5.10;2.22;;;;;;;59.07;2.47;99340.72;5095196;28;20044;-72
2022/06/24 08:37:53;;;;;;;8.60;3.87;;;;;;;59.78;1.49;99341.75;5095924;28;20084;-73
2022/06/24 08:40:23;;;;;;;4.68;2.30;;;;;;;59.80;2.12;99351.63;5095457;28;20040;-73
2022/06/24 08:42:53;;;;;;;4.60;2.60;;;;;;;59.49;2.38;99336.69;5077360;28;20044;-73
2022/06/24 08:45:20;;;;;;;5.63;2.60;;;;;;;59.40;2.46;99346.00;5094706;28;20079;-73
2022/06/24 08:47:48;;;;;;;5.35;2.10;;;;;;;59.77;2.01;99343.19;5094932;28;20121;-72
2022/06/24 08:50:17;;;;;;;3.53;2.58;;;;;;;60.27;1.50;99332.63;5095128;28;20043;-74
2022/06/24 08:52:52;;;;;;;6.95;2.50;;;;;;;60.96;1.47;99337.06;5094647;28;20052;-72
2022/06/24 08:55:22;;;;;;;7.70;2.78;;;;;;;60.65;1.20;99332.03;5094949;28;20131;-72
2022/06/24 08:57:49;;;;;;;5.30;2.40;;;;;;;60.40;1.72;99335.50;5094732;28;20060;-72
2022/06/24 09:00:18;;;;;;;5.60;2.50;;;;;;;60.55;1.42;99322.59;5094243;28;20044;-72
2022/06/24 09:02:47;;;;;;;5.53;2.92;;;;;;;61.08;1.26;99326.25;5094194;28;20525;-72
2022/06/24 09:05:22;;;;;;;4.18;2.88;;;;;;;61.13;1.51;99324.94;5094655;28;20048;-72
2022/06/24 09:07:56;;;;;;;7.30;2.73;;;;;;;59.77;2.40;99316.16;5094614;28;20051;-74
2022/06/24 09:10:23;;;;;;;7.10;2.60;;;;;;;58.94;1.78;99314.53;5094087;28;20044;-72
2022/06/24 09:12:50;;;;;;;4.85;2.50;;;;;;;59.84;1.59;99321.03;5093960;28;20055;-72
2022/06/24 09:15:17;;;;;;;4.18;3.00;;;;;;;60.33;1.45;99318.63;5092969;28;20574;-74
2022/06/24 09:17:44;;;;;;;3.42;3.13;;;;;;;60.18;1.71;99316.50;5093179;28;20055;-72
2022/06/24 09:20:17;;;;;;;4.35;3.00;;;;;;;59.20;1.54;99324.00;5092247;28;20067;-72
2022/06/24 09:23:09;;;;;;;5.05;3.20;;;;;;;59.89;1.91;99314.50;5092659;28;20138;-73
2022/06/24 09:25:44;;;;;;;;;;;;;;;60.06;1.82;99328.75;5093919;28;20075;-73
2022/06/24 09:28:21;;;;;;;4.55;2.80;;;;;;;58.94;2.48;99313.75;5088308;28;19963;-73
2022/06/24 09:30:49;;;;;;;3.10;2.80;;;;;;;59.42;1.66;99310.06;5093412;28;20040;-72
2022/06/24 09:33:18;;;;;;;4.30;2.90;;;;;;;59.60;1.38;99316.91;5091829;28;20044;-71
2022/06/24 09:36:03;;;;;;;4.35;2.55;;;;;;;58.68;1.72;99298.28;5091827;28;20052;-71
2022/06/24 09:38:30;;;;;;;5.07;1.90;;;;;;;55.11;3.66;99293.63;5093976;28;20052;-72
2022/06/24 09:41:04;;;;;;;5.00;1.75;;;;;;;49.08;5.85;99283.69;5075128;28;20048;-73
2022/06/24 09:43:32;;;;;;;2.55;1.63;;;;;;;44.34;8.54;99283.25;5092688;28;20143;-69
2022/06/24 09:46:00;;;;;;;6.25;1.50;;;;;;;41.49;10.42;99285.84;5079088;28;20044;-68
2022/06/24 09:48:32;;;;;;;4.75;1.50;;;;;;;39.60;11.37;99280.03;5093119;28;20074;-67
2022/06/24 09:51:01;;;;;;;2.97;1.50;;;;;;;38.07;12.71;99282.63;5093384;28;20040;-66
2022/06/24 09:53:35;;;;;;;8.07;1.90;;;;;;;36.82;13.96;99269.19;5092916;28;20075;-69
2022/06/24 09:56:07;;;;;;;4.30;1.40;;;;;;;35.86;14.73;99263.09;5093303;28;20043;-73
2022/06/24 09:58:39;;;;;;;3.58;1.30;;;;;;;35.17;15.65;99269.09;5093616;28;20419;-67
2022/06/24 10:01:07;;;;;;;2.92;1.92;;;;;;;34.50;16.51;99266.50;5092783;28;20066;-68
2022/06/24 10:03:35;;;;;;;3.28;1.70;;;;;;;33.78;17.63;99273.91;5093631;28;20143;-67
2022/06/24 10:06:10;;;;;;;4.22;2.20;;;;;;;33.19;17.80;99270.03;5093431;28;20050;-69
2022/06/24 10:08:40;;;;;;;3.47;1.70;;;;;;;32.85;18.25;99266.91;5093014;28;20048;-72
2022/06/24 10:11:27;;;;;;;3.28;1.40;;;;;;;32.16;18.50;99264.22;5087198;28;20040;-72
2022/06/24 10:13:55;;;;;;;3.03;1.67;;;;;;;31.53;19.56;99267.22;5091803;28;20135;-72
2022/06/24 10:16:23;;;;;;;2.30;1.40;;;;;;;31.37;19.33;99265.47;5092717;28;20074;-72
2022/06/24 10:18:52;;;;;;;3.00;1.60;;;;;;;31.21;19.84;99267.84;5092428;28;20047;-71
2022/06/24 10:21:20;;;;;;;8.00;1.80;;;;;;;30.97;20.30;99273.41;5092605;28;20093;-70
2022/06/24 10:23:47;;;;;;;3.08;1.60;;;;;;;30.81;20.29;99265.06;5092991;28;20498;-71
2022/06/24 10:26:25;;;;;;;2.97;1.80;;;;;;;30.70;20.64;99261.03;5093288;28;20618;-71
2022/06/24 10:29:04;;;;;;;9.73;1.70;;;;;;;30.63;20.29;99267.88;5093148;28;20059;-71
2022/06/24 10:31:37;;;;;;;;;;;;;;;30.40;20.32;99264.78;5093183;28;20074;-70
2022/06/24 10:34:05;;;;;;;3.40;1.63;;;;;;;30.26;20.47;99263.31;5092377;28;19923;-72
2022/06/24 10:36:32;;;;;;;5.80;1.75;;;;;;;29.85;21.73;99257.97;5092821;28;20150;-72
2022/06/24 10:39:12;;;;;;;2.10;1.42;;;;;;;29.65;21.71;99261.19;5092880;28;20071;-71
2022/06/24 10:41:41;;;;;;;2.25;1.60;;;;;;;29.67;21.93;99278.75;5092849;28;20055;-71
2022/06/24 10:44:22;;;;;;;5.65;1.60;;;;;;;29.50;21.93;99268.69;5092917;28;20096;-71
2022/06/24 10:47:04;;;;;;;2.40;1.40;;;;;;;29.56;22.25;99263.16;5092798;28;20048;-71
2022/06/24 10:49:50;;;;;;;3.63;1.63;;;;;;;29.39;21.59;99253.97;5092395;28;20491;-72
2022/06/24 10:52:38;;;;;;;2.65;1.60;;;;;;;29.10;21.67;99264.06;5092737;28;20075;-70
2022/06/24 10:55:17;;;;;;;2.90;1.60;;;;;;;29.03;21.96;99265.09;5093081;28;20043;-73
2022/06/24 10:57:47;;;;;;;2.20;1.30;;;;;;;29.06;21.61;99269.94;5092590;28;20094;-68
2022/06/24 11:00:14;;;;;;;4.03;1.60;;;;;;;29.01;22.07;99270.47;5092229;28;20044;-67
2022/06/24 11:02:44;;;;;;;6.45;1.60;;;;;;;28.93;22.14;99268.34;5093002;28;20131;-67
2022/06/24 11:05:34;;;;;;;3.45;1.90;;;;;;;28.95;22.26;99263.72;5093200;28;20052;-68
2022/06/24 11:08:02;;;;;;;4.28;1.67;;;;;;;28.98;22.25;99253.44;5092661;28;20040;-70
2022/06/24 11:10:31;;;;;;;5.70;1.70;;;;;;;28.99;22.43;99258.69;5092611;28;20563;-67
2022/06/24 11:13:00;;;;;;;;;;;;;;;28.91;22.36;99259.41;5092670;28;20087;-67
2022/06/24 11:15:39;;;;;;;5.18;2.00;;;;;;;28.89;22.80;99247.63;5092669;28;20418;-68
2022/06/24 11:18:08;;;;;;;3.03;1.58;;;;;;;28.75;23.19;99248.94;5092291;28;20040;-67
2022/06/24 11:21:07;;;;;;;3.83;1.98;;;;;;;28.73;23.56;99257.16;5093092;28;20040;-68
2022/06/24 11:23:40;;;;;;;2.75;1.42;;;;;;;28.68;23.42;99260.59;5092090;28;20109;-67
2022/06/24 11:26:19;;;;;;;3.97;1.60;;;;;;;28.73;23.24;99262.91;5092658;28;20071;-68
2022/06/24 11:28:54;;;;;;;3.25;1.50;;;;;;;28.75;23.48;99257.50;5092566;28;20131;-68
2022/06/24 11:31:26;;;;;;;4.43;1.98;;;;;;;28.85;23.55;99256.34;5092855;28;20499;-67
2022/06/24 11:34:03;;;;;;;4.45;1.88;;;;;;;28.94;23.84;99250.69;5092509;28;20101;-67
2022/06/24 11:36:31;;;;;;;3.72;1.48;;;;;;;28.82;23.58;99245.81;5092098;28;20055;-67
2022/06/24 11:39:07;;;;;;;2.20;1.50;;;;;;;28.61;23.64;99249.41;5092834;28;20071;-67
2022/06/24 11:41:39;;;;;;;2.97;1.75;;;;;;;28.42;23.76;99239.78;5092126;28;20094;-68
2022/06/24 11:44:16;;;;;;;6.15;1.60;;;;;;;28.33;23.92;99251.13;5093292;28;20070;-68
2022/06/24 11:46:51;;;;;;;3.20;1.67;;;;;;;28.22;23.83;99244.94;5095147;28;20052;-71
2022/06/24 11:49:19;;;;;;;7.47;1.48;;;;;;;28.19;23.88;99245.88;5094188;28;20048;-71
2022/06/24 11:51:48;;;;;;;3.13;1.70;;;;;;;28.17;23.88;99236.16;5094696;28;20062;-71
2022/06/24 11:54:16;;;;;;;2.37;1.50;;;;;;;28.27;23.80;99240.75;5093375;28;20529;-71
2022/06/24 11:56:43;;;;;;;5.63;1.55;;;;;;;28.28;23.61;99231.69;5094183;28;20883;-71
2022/06/24 11:59:13;;;;;;;5.20;1.70;;;;;;;28.25;23.63;99237.53;5095809;28;20052;-71
2022/06/24 12:01:46;;;;;;;2.00;1.20;;;;;;;28.29;23.43;99238.19;5095535;28;20059;-71
2022/06/24 12:04:14;;;;;;;3.00;1.55;;;;;;;28.21;23.87;99231.09;5090804;28;20499;-70